sensor_id;sensor_type;location;lat;lon;timestamp;P1;durP1;ratioP1;P2;durP2;ratioP2
11962;SDS011;62678;52.130;5.584;2023-05-15T00:00:45;32.25;;;24.90;;
11962;SDS011;62678;52.130;5.584;2023-05-15T00:03:13;35.45;;;24.58;;
11962;SDS011;62678;52.130;5.584;2023-05-15T00:05:41;32.95;;;24.38;;
11962;SDS011;62678;52.130;5.584;2023-05-15T00:08:08;35.92;;;24.95;;
11962;SDS011;62678;52.130;5.584;2023-05-15T00:10:35;32.75;;;24.50;;
11962;SDS011;62678;52.130;5.584;2023-05-15T00:13:02;33.58;;;24.38;;
11962;SDS011;62678;52.130;5.584;2023-05-15T00:15:29;37.78;;;25.20;;
11962;SDS011;62678;52.130;5.584;2023-05-15T00:17:56;37.30;;;25.40;;
11962;SDS011;62678;52.130;5.584;2023-05-15T00:20:24;35.28;;;25.00;;
11962;SDS011;62678;52.130;5.584;2023-05-15T00:22:51;37.65;;;26.48;;
11962;SDS011;62678;52.130;5.584;2023-05-15T00:25:17;36.33;;;25.05;;
11962;SDS011;62678;52.130;5.584;2023-05-15T00:27:44;37.42;;;27.50;;
11962;SDS011;62678;52.130;5.584;2023-05-15T00:30:12;42.63;;;27.70;;
11962;SDS011;62678;52.130;5.584;2023-05-15T00:32:40;39.83;;;27.65;;
11962;SDS011;62678;52.130;5.584;2023-05-15T00:35:09;44.67;;;28.70;;
11962;SDS011;62678;52.130;5.584;2023-05-15T00:37:37;46.75;;;29.27;;
11962;SDS011;62678;52.130;5.584;2023-05-15T00:40:04;47.20;;;29.00;;
11962;SDS011;62678;52.130;5.584;2023-05-15T00:42:32;50.50;;;28.65;;
11962;SDS011;62678;52.130;5.584;2023-05-15T00:45:00;44.17;;;28.95;;
11962;SDS011;62678;52.130;5.584;2023-05-15T00:47:28;42.35;;;28.42;;
11962;SDS011;62678;52.130;5.584;2023-05-15T00:49:55;43.83;;;29.02;;
11962;SDS011;62678;52.130;5.584;2023-05-15T00:52:22;43.50;;;28.42;;
11962;SDS011;62678;52.130;5.584;2023-05-15T00:54:51;48.65;;;29.67;;
11962;SDS011;62678;52.130;5.584;2023-05-15T00:57:18;49.05;;;29.33;;
11962;SDS011;62678;52.130;5.584;2023-05-15T00:59:47;51.05;;;30.15;;
11962;SDS011;62678;52.130;5.584;2023-05-15T01:02:16;46.92;;;30.40;;
11962;SDS011;62678;52.130;5.584;2023-05-15T01:04:44;42.95;;;29.38;;
11962;SDS011;62678;52.130;5.584;2023-05-15T01:07:11;46.55;;;29.52;;
11962;SDS011;62678;52.130;5.584;2023-05-15T01:09:38;43.45;;;30.00;;
11962;SDS011;62678;52.130;5.584;2023-05-15T01:12:08;45.20;;;30.38;;
11962;SDS011;62678;52.130;5.584;2023-05-15T01:14:36;48.80;;;30.02;;
11962;SDS011;62678;52.130;5.584;2023-05-15T01:17:03;48.15;;;30.98;;
11962;SDS011;62678;52.130;5.584;2023-05-15T01:19:30;48.15;;;30.30;;
11962;SDS011;62678;52.130;5.584;2023-05-15T01:22:05;43.15;;;29.73;;
11962;SDS011;62678;52.130;5.584;2023-05-15T01:24:56;48.95;;;31.73;;
11962;SDS011;62678;52.130;5.584;2023-05-15T01:27:53;47.70;;;30.33;;
11962;SDS011;62678;52.130;5.584;2023-05-15T01:30:24;55.38;;;32.45;;
11962;SDS011;62678;52.130;5.584;2023-05-15T01:32:54;51.95;;;32.30;;
11962;SDS011;62678;52.130;5.584;2023-05-15T01:35:31;55.53;;;33.88;;
11962;SDS011;62678;52.130;5.584;2023-05-15T01:38:02;52.35;;;32.20;;
11962;SDS011;62678;52.130;5.584;2023-05-15T01:40:34;48.28;;;32.88;;
11962;SDS011;62678;52.130;5.584;2023-05-15T01:43:06;54.28;;;35.03;;
11962;SDS011;62678;52.130;5.584;2023-05-15T01:45:33;61.85;;;35.95;;
11962;SDS011;62678;52.130;5.584;2023-05-15T01:48:02;60.05;;;34.70;;
11962;SDS011;62678;52.130;5.584;2023-05-15T01:50:33;60.38;;;35.42;;
11962;SDS011;62678;52.130;5.584;2023-05-15T01:53:01;64.88;;;35.90;;
11962;SDS011;62678;52.130;5.584;2023-05-15T01:55:28;62.67;;;35.95;;
11962;SDS011;62678;52.130;5.584;2023-05-15T01:57:55;63.28;;;37.17;;
11962;SDS011;62678;52.130;5.584;2023-05-15T02:00:27;57.50;;;35.58;;
11962;SDS011;62678;52.130;5.584;2023-05-15T02:02:55;62.53;;;35.38;;
11962;SDS011;62678;52.130;5.584;2023-05-15T02:05:23;65.80;;;37.40;;
11962;SDS011;62678;52.130;5.584;2023-05-15T02:07:51;60.97;;;36.38;;
11962;SDS011;62678;52.130;5.584;2023-05-15T02:10:18;63.40;;;35.42;;
11962;SDS011;62678;52.130;5.584;2023-05-15T02:12:46;60.70;;;35.78;;
11962;SDS011;62678;52.130;5.584;2023-05-15T02:15:14;58.03;;;33.30;;
11962;SDS011;62678;52.130;5.584;2023-05-15T02:17:44;62.17;;;34.90;;
11962;SDS011;62678;52.130;5.584;2023-05-15T02:20:11;67.55;;;37.83;;
11962;SDS011;62678;52.130;5.584;2023-05-15T02:22:38;71.22;;;39.90;;
11962;SDS011;62678;52.130;5.584;2023-05-15T02:25:05;75.15;;;38.35;;
11962;SDS011;62678;52.130;5.584;2023-05-15T02:27:33;84.10;;;41.88;;
11962;SDS011;62678;52.130;5.584;2023-05-15T02:30:10;89.32;;;42.22;;
11962;SDS011;62678;52.130;5.584;2023-05-15T02:32:49;83.05;;;41.88;;
11962;SDS011;62678;52.130;5.584;2023-05-15T02:35:25;83.35;;;41.70;;
11962;SDS011;62678;52.130;5.584;2023-05-15T02:37:59;85.88;;;41.20;;
11962;SDS011;62678;52.130;5.584;2023-05-15T02:40:28;93.95;;;43.53;;
11962;SDS011;62678;52.130;5.584;2023-05-15T02:42:56;95.28;;;42.13;;
11962;SDS011;62678;52.130;5.584;2023-05-15T02:45:24;93.15;;;42.88;;
11962;SDS011;62678;52.130;5.584;2023-05-15T02:47:52;97.60;;;42.53;;
11962;SDS011;62678;52.130;5.584;2023-05-15T02:50:19;86.28;;;40.85;;
11962;SDS011;62678;52.130;5.584;2023-05-15T02:52:46;99.00;;;41.17;;
11962;SDS011;62678;52.130;5.584;2023-05-15T02:55:13;101.05;;;42.42;;
11962;SDS011;62678;52.130;5.584;2023-05-15T02:57:40;98.63;;;44.10;;
11962;SDS011;62678;52.130;5.584;2023-05-15T03:00:08;100.05;;;43.40;;
11962;SDS011;62678;52.130;5.584;2023-05-15T03:02:35;92.82;;;43.55;;
11962;SDS011;62678;52.130;5.584;2023-05-15T03:05:04;90.32;;;41.78;;
11962;SDS011;62678;52.130;5.584;2023-05-15T03:07:32;81.00;;;40.75;;
11962;SDS011;62678;52.130;5.584;2023-05-15T03:09:59;77.10;;;38.13;;
11962;SDS011;62678;52.130;5.584;2023-05-15T03:12:26;75.07;;;36.67;;
11962;SDS011;62678;52.130;5.584;2023-05-15T03:14:52;76.63;;;38.75;;
11962;SDS011;62678;52.130;5.584;2023-05-15T03:17:19;76.85;;;37.63;;
11962;SDS011;62678;52.130;5.584;2023-05-15T03:19:46;74.40;;;37.78;;
11962;SDS011;62678;52.130;5.584;2023-05-15T03:22:14;71.40;;;38.33;;
11962;SDS011;62678;52.130;5.584;2023-05-15T03:24:41;77.22;;;37.65;;
11962;SDS011;62678;52.130;5.584;2023-05-15T03:27:08;80.03;;;39.10;;
11962;SDS011;62678;52.130;5.584;2023-05-15T03:29:35;70.35;;;38.47;;
11962;SDS011;62678;52.130;5.584;2023-05-15T03:32:01;78.75;;;37.95;;
11962;SDS011;62678;52.130;5.584;2023-05-15T03:34:28;73.18;;;38.53;;
11962;SDS011;62678;52.130;5.584;2023-05-15T03:36:55;75.00;;;38.42;;
11962;SDS011;62678;52.130;5.584;2023-05-15T03:39:23;73.22;;;39.47;;
11962;SDS011;62678;52.130;5.584;2023-05-15T03:41:50;75.90;;;39.17;;
11962;SDS011;62678;52.130;5.584;2023-05-15T03:44:17;72.28;;;38.35;;
11962;SDS011;62678;52.130;5.584;2023-05-15T03:46:44;75.60;;;40.17;;
11962;SDS011;62678;52.130;5.584;2023-05-15T03:49:10;74.80;;;39.22;;
11962;SDS011;62678;52.130;5.584;2023-05-15T03:51:37;72.57;;;39.10;;
11962;SDS011;62678;52.130;5.584;2023-05-15T03:54:04;71.82;;;35.72;;
11962;SDS011;62678;52.130;5.584;2023-05-15T03:56:32;64.45;;;36.20;;
11962;SDS011;62678;52.130;5.584;2023-05-15T03:58:59;66.80;;;36.60;;
11962;SDS011;62678;52.130;5.584;2023-05-15T04:01:26;63.63;;;36.78;;
11962;SDS011;62678;52.130;5.584;2023-05-15T04:03:53;57.55;;;34.80;;
11962;SDS011;62678;52.130;5.584;2023-05-15T04:06:20;60.65;;;37.00;;
11962;SDS011;62678;52.130;5.584;2023-05-15T04:08:47;66.07;;;36.92;;
11962;SDS011;62678;52.130;5.584;2023-05-15T04:11:14;67.90;;;38.15;;
11962;SDS011;62678;52.130;5.584;2023-05-15T04:13:43;67.65;;;38.17;;
11962;SDS011;62678;52.130;5.584;2023-05-15T04:16:13;70.53;;;38.22;;
11962;SDS011;62678;52.130;5.584;2023-05-15T04:18:40;65.65;;;37.33;;
11962;SDS011;62678;52.130;5.584;2023-05-15T04:21:06;65.30;;;36.97;;
11962;SDS011;62678;52.130;5.584;2023-05-15T04:23:33;66.53;;;37.83;;
11962;SDS011;62678;52.130;5.584;2023-05-15T04:26:00;65.60;;;36.05;;
11962;SDS011;62678;52.130;5.584;2023-05-15T04:28:27;66.75;;;37.53;;
11962;SDS011;62678;52.130;5.584;2023-05-15T04:30:55;58.78;;;34.83;;
11962;SDS011;62678;52.130;5.584;2023-05-15T04:33:23;58.40;;;34.30;;
11962;SDS011;62678;52.130;5.584;2023-05-15T04:35:50;59.75;;;34.85;;
11962;SDS011;62678;52.130;5.584;2023-05-15T04:38:17;59.95;;;33.80;;
11962;SDS011;62678;52.130;5.584;2023-05-15T04:40:44;58.65;;;33.15;;
11962;SDS011;62678;52.130;5.584;2023-05-15T04:43:11;54.20;;;32.90;;
11962;SDS011;62678;52.130;5.584;2023-05-15T04:45:37;47.60;;;31.85;;
11962;SDS011;62678;52.130;5.584;2023-05-15T04:48:06;51.20;;;33.22;;
11962;SDS011;62678;52.130;5.584;2023-05-15T04:50:32;48.60;;;32.35;;
11962;SDS011;62678;52.130;5.584;2023-05-15T04:53:00;54.33;;;32.55;;
11962;SDS011;62678;52.130;5.584;2023-05-15T04:55:27;49.08;;;32.92;;
11962;SDS011;62678;52.130;5.584;2023-05-15T04:57:54;52.35;;;32.53;;
11962;SDS011;62678;52.130;5.584;2023-05-15T05:00:21;52.90;;;33.30;;
11962;SDS011;62678;52.130;5.584;2023-05-15T05:02:48;53.63;;;33.58;;
11962;SDS011;62678;52.130;5.584;2023-05-15T05:05:16;50.22;;;32.20;;
11962;SDS011;62678;52.130;5.584;2023-05-15T05:07:43;46.17;;;32.90;;
11962;SDS011;62678;52.130;5.584;2023-05-15T05:10:10;50.05;;;32.83;;
11962;SDS011;62678;52.130;5.584;2023-05-15T05:12:38;44.15;;;30.67;;
11962;SDS011;62678;52.130;5.584;2023-05-15T05:15:06;47.60;;;32.03;;
11962;SDS011;62678;52.130;5.584;2023-05-15T05:17:34;45.10;;;30.45;;
11962;SDS011;62678;52.130;5.584;2023-05-15T05:20:00;40.83;;;29.55;;
11962;SDS011;62678;52.130;5.584;2023-05-15T05:22:30;44.67;;;30.88;;
11962;SDS011;62678;52.130;5.584;2023-05-15T05:24:57;43.45;;;30.75;;
11962;SDS011;62678;52.130;5.584;2023-05-15T05:27:24;40.33;;;28.50;;
11962;SDS011;62678;52.130;5.584;2023-05-15T05:29:50;41.97;;;28.77;;
11962;SDS011;62678;52.130;5.584;2023-05-15T05:32:18;40.50;;;29.17;;
11962;SDS011;62678;52.130;5.584;2023-05-15T05:34:45;37.22;;;26.70;;
11962;SDS011;62678;52.130;5.584;2023-05-15T05:37:11;35.70;;;27.35;;
11962;SDS011;62678;52.130;5.584;2023-05-15T05:39:40;33.72;;;24.80;;
11962;SDS011;62678;52.130;5.584;2023-05-15T05:42:06;32.33;;;25.13;;
11962;SDS011;62678;52.130;5.584;2023-05-15T05:44:35;36.40;;;26.33;;
11962;SDS011;62678;52.130;5.584;2023-05-15T05:47:02;35.45;;;26.17;;
11962;SDS011;62678;52.130;5.584;2023-05-15T05:49:29;31.10;;;25.38;;
11962;SDS011;62678;52.130;5.584;2023-05-15T05:51:56;29.77;;;24.02;;
11962;SDS011;62678;52.130;5.584;2023-05-15T05:54:29;31.27;;;23.85;;
11962;SDS011;62678;52.130;5.584;2023-05-15T05:56:57;31.30;;;23.92;;
11962;SDS011;62678;52.130;5.584;2023-05-15T05:59:24;29.63;;;22.90;;
11962;SDS011;62678;52.130;5.584;2023-05-15T06:01:51;25.45;;;20.83;;
11962;SDS011;62678;52.130;5.584;2023-05-15T06:04:18;24.73;;;20.52;;
11962;SDS011;62678;52.130;5.584;2023-05-15T06:06:45;27.50;;;20.33;;
11962;SDS011;62678;52.130;5.584;2023-05-15T06:09:12;26.95;;;20.65;;
11962;SDS011;62678;52.130;5.584;2023-05-15T06:11:38;26.95;;;21.33;;
11962;SDS011;62678;52.130;5.584;2023-05-15T06:14:07;28.88;;;21.67;;
11962;SDS011;62678;52.130;5.584;2023-05-15T06:16:34;24.17;;;19.60;;
11962;SDS011;62678;52.130;5.584;2023-05-15T06:19:01;23.10;;;19.02;;
11962;SDS011;62678;52.130;5.584;2023-05-15T06:21:27;21.98;;;17.90;;
11962;SDS011;62678;52.130;5.584;2023-05-15T06:23:54;22.73;;;18.77;;
11962;SDS011;62678;52.130;5.584;2023-05-15T06:26:21;21.33;;;17.80;;
11962;SDS011;62678;52.130;5.584;2023-05-15T06:28:49;22.65;;;17.75;;
11962;SDS011;62678;52.130;5.584;2023-05-15T06:31:17;23.00;;;18.45;;
11962;SDS011;62678;52.130;5.584;2023-05-15T06:33:44;24.75;;;18.17;;
11962;SDS011;62678;52.130;5.584;2023-05-15T06:36:11;23.15;;;18.70;;
11962;SDS011;62678;52.130;5.584;2023-05-15T06:38:38;21.38;;;17.38;;
11962;SDS011;62678;52.130;5.584;2023-05-15T06:41:05;22.17;;;18.33;;
11962;SDS011;62678;52.130;5.584;2023-05-15T06:43:31;21.23;;;18.55;;
11962;SDS011;62678;52.130;5.584;2023-05-15T06:45:58;23.88;;;18.92;;
11962;SDS011;62678;52.130;5.584;2023-05-15T06:48:26;20.48;;;17.50;;
11962;SDS011;62678;52.130;5.584;2023-05-15T06:50:53;24.88;;;17.75;;
11962;SDS011;62678;52.130;5.584;2023-05-15T06:53:20;18.42;;;16.40;;
11962;SDS011;62678;52.130;5.584;2023-05-15T06:55:47;21.52;;;16.83;;
11962;SDS011;62678;52.130;5.584;2023-05-15T06:58:14;21.70;;;18.55;;
11962;SDS011;62678;52.130;5.584;2023-05-15T07:00:42;24.05;;;19.33;;
11962;SDS011;62678;52.130;5.584;2023-05-15T07:03:08;23.85;;;19.40;;
11962;SDS011;62678;52.130;5.584;2023-05-15T07:05:37;21.75;;;18.63;;
11962;SDS011;62678;52.130;5.584;2023-05-15T07:08:04;24.30;;;19.83;;
11962;SDS011;62678;52.130;5.584;2023-05-15T07:10:31;20.40;;;18.20;;
11962;SDS011;62678;52.130;5.584;2023-05-15T07:12:57;23.77;;;17.80;;
11962;SDS011;62678;52.130;5.584;2023-05-15T07:15:24;20.20;;;18.00;;
11962;SDS011;62678;52.130;5.584;2023-05-15T07:17:51;21.55;;;19.25;;
11962;SDS011;62678;52.130;5.584;2023-05-15T07:20:18;20.35;;;18.25;;
11962;SDS011;62678;52.130;5.584;2023-05-15T07:22:46;21.67;;;18.83;;
11962;SDS011;62678;52.130;5.584;2023-05-15T07:25:13;25.90;;;21.73;;
11962;SDS011;62678;52.130;5.584;2023-05-15T07:27:40;27.17;;;22.75;;
11962;SDS011;62678;52.130;5.584;2023-05-15T07:30:07;24.15;;;21.58;;
11962;SDS011;62678;52.130;5.584;2023-05-15T07:32:34;24.63;;;20.65;;
11962;SDS011;62678;52.130;5.584;2023-05-15T07:35:01;25.05;;;21.23;;
11962;SDS011;62678;52.130;5.584;2023-05-15T07:37:29;23.73;;;21.25;;
11962;SDS011;62678;52.130;5.584;2023-05-15T07:39:57;24.50;;;21.60;;
11962;SDS011;62678;52.130;5.584;2023-05-15T07:42:24;24.25;;;21.10;;
11962;SDS011;62678;52.130;5.584;2023-05-15T07:44:51;24.40;;;21.05;;
11962;SDS011;62678;52.130;5.584;2023-05-15T07:47:18;25.13;;;20.83;;
11962;SDS011;62678;52.130;5.584;2023-05-15T07:49:45;23.25;;;20.75;;
11962;SDS011;62678;52.130;5.584;2023-05-15T07:52:11;25.58;;;21.27;;
11962;SDS011;62678;52.130;5.584;2023-05-15T07:54:38;26.83;;;21.27;;
11962;SDS011;62678;52.130;5.584;2023-05-15T07:57:07;25.65;;;21.95;;
11962;SDS011;62678;52.130;5.584;2023-05-15T07:59:34;24.45;;;21.85;;
11962;SDS011;62678;52.130;5.584;2023-05-15T08:02:01;24.65;;;21.40;;
11962;SDS011;62678;52.130;5.584;2023-05-15T08:04:28;26.33;;;21.80;;
11962;SDS011;62678;52.130;5.584;2023-05-15T08:06:55;25.17;;;22.20;;
11962;SDS011;62678;52.130;5.584;2023-05-15T08:09:22;25.08;;;21.33;;
11962;SDS011;62678;52.130;5.584;2023-05-15T08:11:49;24.23;;;20.45;;
11962;SDS011;62678;52.130;5.584;2023-05-15T08:14:17;23.80;;;20.48;;
11962;SDS011;62678;52.130;5.584;2023-05-15T08:16:43;25.35;;;20.65;;
11962;SDS011;62678;52.130;5.584;2023-05-15T08:19:10;21.67;;;19.35;;
11962;SDS011;62678;52.130;5.584;2023-05-15T08:21:37;21.00;;;18.63;;
11962;SDS011;62678;52.130;5.584;2023-05-15T08:24:05;21.33;;;18.75;;
11962;SDS011;62678;52.130;5.584;2023-05-15T08:26:32;21.95;;;18.60;;
11962;SDS011;62678;52.130;5.584;2023-05-15T08:28:59;20.25;;;17.98;;
11962;SDS011;62678;52.130;5.584;2023-05-15T08:31:27;23.75;;;19.20;;
11962;SDS011;62678;52.130;5.584;2023-05-15T08:33:54;22.63;;;18.30;;
11962;SDS011;62678;52.130;5.584;2023-05-15T08:36:21;21.23;;;18.35;;
11962;SDS011;62678;52.130;5.584;2023-05-15T08:38:48;18.98;;;16.63;;
11962;SDS011;62678;52.130;5.584;2023-05-15T08:41:17;20.52;;;16.88;;
11962;SDS011;62678;52.130;5.584;2023-05-15T08:43:55;20.33;;;15.93;;
11962;SDS011;62678;52.130;5.584;2023-05-15T08:46:23;16.13;;;14.43;;
11962;SDS011;62678;52.130;5.584;2023-05-15T08:48:52;18.95;;;14.57;;
11962;SDS011;62678;52.130;5.584;2023-05-15T08:51:19;17.45;;;14.65;;
11962;SDS011;62678;52.130;5.584;2023-05-15T08:53:47;15.25;;;13.65;;
11962;SDS011;62678;52.130;5.584;2023-05-15T08:56:15;16.00;;;13.38;;
11962;SDS011;62678;52.130;5.584;2023-05-15T08:58:43;17.77;;;14.10;;
11962;SDS011;62678;52.130;5.584;2023-05-15T09:01:11;16.38;;;12.80;;
11962;SDS011;62678;52.130;5.584;2023-05-15T09:03:39;15.77;;;13.75;;
11962;SDS011;62678;52.130;5.584;2023-05-15T09:06:07;17.58;;;14.20;;
11962;SDS011;62678;52.130;5.584;2023-05-15T09:08:35;18.98;;;15.20;;
11962;SDS011;62678;52.130;5.584;2023-05-15T09:11:03;19.50;;;15.60;;
11962;SDS011;62678;52.130;5.584;2023-05-15T09:13:32;18.88;;;15.50;;
11962;SDS011;62678;52.130;5.584;2023-05-15T09:15:58;21.20;;;16.40;;
11962;SDS011;62678;52.130;5.584;2023-05-15T09:18:25;20.63;;;16.92;;
11962;SDS011;62678;52.130;5.584;2023-05-15T09:20:53;20.23;;;16.45;;
11962;SDS011;62678;52.130;5.584;2023-05-15T09:23:24;19.73;;;15.38;;
11962;SDS011;62678;52.130;5.584;2023-05-15T09:25:52;17.13;;;15.30;;
11962;SDS011;62678;52.130;5.584;2023-05-15T09:28:24;18.60;;;15.10;;
11962;SDS011;62678;52.130;5.584;2023-05-15T09:30:56;19.17;;;15.75;;
11962;SDS011;62678;52.130;5.584;2023-05-15T09:33:29;19.77;;;15.85;;
11962;SDS011;62678;52.130;5.584;2023-05-15T09:35:57;17.52;;;14.90;;
11962;SDS011;62678;52.130;5.584;2023-05-15T09:38:25;19.83;;;16.40;;
11962;SDS011;62678;52.130;5.584;2023-05-15T09:40:59;18.20;;;15.93;;
11962;SDS011;62678;52.130;5.584;2023-05-15T09:43:27;16.27;;;14.52;;
11962;SDS011;62678;52.130;5.584;2023-05-15T09:45:55;17.33;;;14.68;;
11962;SDS011;62678;52.130;5.584;2023-05-15T09:48:22;18.80;;;15.52;;
11962;SDS011;62678;52.130;5.584;2023-05-15T09:50:49;17.30;;;15.45;;
11962;SDS011;62678;52.130;5.584;2023-05-15T09:53:16;18.08;;;15.48;;
11962;SDS011;62678;52.130;5.584;2023-05-15T09:55:44;19.83;;;17.23;;
11962;SDS011;62678;52.130;5.584;2023-05-15T09:58:14;19.73;;;17.63;;
11962;SDS011;62678;52.130;5.584;2023-05-15T10:00:42;20.67;;;18.33;;
11962;SDS011;62678;52.130;5.584;2023-05-15T10:03:11;21.80;;;18.73;;
11962;SDS011;62678;52.130;5.584;2023-05-15T10:05:38;23.27;;;19.33;;
11962;SDS011;62678;52.130;5.584;2023-05-15T10:08:05;21.98;;;18.42;;
11962;SDS011;62678;52.130;5.584;2023-05-15T10:10:32;21.80;;;18.25;;
11962;SDS011;62678;52.130;5.584;2023-05-15T10:13:00;21.35;;;17.75;;
11962;SDS011;62678;52.130;5.584;2023-05-15T10:15:30;22.15;;;18.13;;
11962;SDS011;62678;52.130;5.584;2023-05-15T10:17:57;24.90;;;18.42;;
11962;SDS011;62678;52.130;5.584;2023-05-15T10:20:25;20.10;;;17.67;;
11962;SDS011;62678;52.130;5.584;2023-05-15T10:22:52;21.02;;;18.70;;
11962;SDS011;62678;52.130;5.584;2023-05-15T10:25:22;20.33;;;18.13;;
11962;SDS011;62678;52.130;5.584;2023-05-15T10:27:57;21.33;;;19.13;;
11962;SDS011;62678;52.130;5.584;2023-05-15T10:30:26;24.33;;;20.58;;
11962;SDS011;62678;52.130;5.584;2023-05-15T10:32:54;27.85;;;23.05;;
11962;SDS011;62678;52.130;5.584;2023-05-15T10:35:21;26.38;;;23.52;;
11962;SDS011;62678;52.130;5.584;2023-05-15T10:37:48;28.83;;;22.92;;
11962;SDS011;62678;52.130;5.584;2023-05-15T10:40:15;27.83;;;23.75;;
11962;SDS011;62678;52.130;5.584;2023-05-15T10:42:44;30.00;;;25.60;;
11962;SDS011;62678;52.130;5.584;2023-05-15T10:45:11;32.03;;;25.52;;
11962;SDS011;62678;52.130;5.584;2023-05-15T10:47:40;33.80;;;27.33;;
11962;SDS011;62678;52.130;5.584;2023-05-15T10:50:08;34.95;;;27.50;;
11962;SDS011;62678;52.130;5.584;2023-05-15T10:52:37;35.42;;;28.88;;
11962;SDS011;62678;52.130;5.584;2023-05-15T10:55:05;34.15;;;28.75;;
11962;SDS011;62678;52.130;5.584;2023-05-15T10:57:33;41.33;;;29.55;;
11962;SDS011;62678;52.130;5.584;2023-05-15T11:00:01;38.72;;;31.17;;
11962;SDS011;62678;52.130;5.584;2023-05-15T11:02:29;38.05;;;30.80;;
11962;SDS011;62678;52.130;5.584;2023-05-15T11:05:04;41.05;;;31.55;;
11962;SDS011;62678;52.130;5.584;2023-05-15T11:07:32;41.60;;;31.80;;
11962;SDS011;62678;52.130;5.584;2023-05-15T11:09:59;39.47;;;29.40;;
11962;SDS011;62678;52.130;5.584;2023-05-15T11:12:26;40.38;;;31.33;;
11962;SDS011;62678;52.130;5.584;2023-05-15T11:15:22;40.30;;;30.70;;
11962;SDS011;62678;52.130;5.584;2023-05-15T11:18:02;39.40;;;31.35;;
11962;SDS011;62678;52.130;5.584;2023-05-15T11:20:36;42.55;;;32.75;;
11962;SDS011;62678;52.130;5.584;2023-05-15T11:23:04;44.75;;;33.08;;
11962;SDS011;62678;52.130;5.584;2023-05-15T11:25:32;46.40;;;33.75;;
11962;SDS011;62678;52.130;5.584;2023-05-15T11:28:01;49.83;;;34.95;;
11962;SDS011;62678;52.130;5.584;2023-05-15T11:30:35;44.03;;;33.95;;
11962;SDS011;62678;52.130;5.584;2023-05-15T11:33:04;45.13;;;34.55;;
11962;SDS011;62678;52.130;5.584;2023-05-15T11:35:35;53.33;;;35.53;;
11962;SDS011;62678;52.130;5.584;2023-05-15T11:38:03;48.03;;;35.60;;
11962;SDS011;62678;52.130;5.584;2023-05-15T11:40:44;52.47;;;36.53;;
11962;SDS011;62678;52.130;5.584;2023-05-15T11:43:18;52.42;;;37.35;;
11962;SDS011;62678;52.130;5.584;2023-05-15T11:45:46;49.35;;;36.50;;
11962;SDS011;62678;52.130;5.584;2023-05-15T11:48:17;54.70;;;38.78;;
11962;SDS011;62678;52.130;5.584;2023-05-15T11:50:47;56.05;;;39.30;;
11962;SDS011;62678;52.130;5.584;2023-05-15T11:53:14;49.28;;;35.80;;
11962;SDS011;62678;52.130;5.584;2023-05-15T11:55:42;53.72;;;36.70;;
11962;SDS011;62678;52.130;5.584;2023-05-15T11:58:10;57.85;;;39.80;;
11962;SDS011;62678;52.130;5.584;2023-05-15T12:00:38;56.80;;;38.80;;
11962;SDS011;62678;52.130;5.584;2023-05-15T12:03:05;53.05;;;38.70;;
11962;SDS011;62678;52.130;5.584;2023-05-15T12:05:39;56.63;;;38.30;;
11962;SDS011;62678;52.130;5.584;2023-05-15T12:08:09;55.70;;;39.25;;
11962;SDS011;62678;52.130;5.584;2023-05-15T12:10:40;56.15;;;39.47;;
11962;SDS011;62678;52.130;5.584;2023-05-15T12:13:08;51.47;;;36.40;;
11962;SDS011;62678;52.130;5.584;2023-05-15T12:15:35;48.05;;;34.67;;
11962;SDS011;62678;52.130;5.584;2023-05-15T12:18:04;45.33;;;34.72;;
11962;SDS011;62678;52.130;5.584;2023-05-15T12:20:32;43.33;;;31.80;;
11962;SDS011;62678;52.130;5.584;2023-05-15T12:23:01;43.05;;;31.80;;
11962;SDS011;62678;52.130;5.584;2023-05-15T12:25:29;39.83;;;31.25;;
11962;SDS011;62678;52.130;5.584;2023-05-15T12:27:58;42.70;;;31.90;;
11962;SDS011;62678;52.130;5.584;2023-05-15T12:30:25;43.00;;;31.05;;
11962;SDS011;62678;52.130;5.584;2023-05-15T12:32:52;43.08;;;32.58;;
11962;SDS011;62678;52.130;5.584;2023-05-15T12:35:19;47.72;;;32.97;;
11962;SDS011;62678;52.130;5.584;2023-05-15T12:37:46;43.75;;;31.15;;
11962;SDS011;62678;52.130;5.584;2023-05-15T12:40:13;40.80;;;30.38;;
11962;SDS011;62678;52.130;5.584;2023-05-15T12:42:50;40.10;;;30.15;;
11962;SDS011;62678;52.130;5.584;2023-05-15T12:45:18;38.80;;;29.75;;
11962;SDS011;62678;52.130;5.584;2023-05-15T12:47:47;40.47;;;29.55;;
11962;SDS011;62678;52.130;5.584;2023-05-15T12:50:15;39.88;;;28.95;;
11962;SDS011;62678;52.130;5.584;2023-05-15T12:52:47;37.83;;;28.85;;
11962;SDS011;62678;52.130;5.584;2023-05-15T12:55:16;36.25;;;27.55;;
11962;SDS011;62678;52.130;5.584;2023-05-15T12:57:44;36.85;;;28.00;;
11962;SDS011;62678;52.130;5.584;2023-05-15T13:00:13;36.90;;;27.25;;
11962;SDS011;62678;52.130;5.584;2023-05-15T13:02:42;33.13;;;25.05;;
11962;SDS011;62678;52.130;5.584;2023-05-15T13:05:09;30.20;;;24.13;;
11962;SDS011;62678;52.130;5.584;2023-05-15T13:07:37;31.25;;;23.58;;
11962;SDS011;62678;52.130;5.584;2023-05-15T13:10:07;26.60;;;22.33;;
11962;SDS011;62678;52.130;5.584;2023-05-15T13:12:35;26.98;;;21.40;;
11962;SDS011;62678;52.130;5.584;2023-05-15T13:15:02;25.33;;;21.80;;
11962;SDS011;62678;52.130;5.584;2023-05-15T13:17:31;28.13;;;22.40;;
11962;SDS011;62678;52.130;5.584;2023-05-15T13:19:59;29.27;;;21.70;;
11962;SDS011;62678;52.130;5.584;2023-05-15T13:22:26;28.85;;;22.70;;
11962;SDS011;62678;52.130;5.584;2023-05-15T13:24:53;28.13;;;23.17;;
11962;SDS011;62678;52.130;5.584;2023-05-15T13:27:22;24.40;;;20.23;;
11962;SDS011;62678;52.130;5.584;2023-05-15T13:29:49;26.52;;;22.25;;
11962;SDS011;62678;52.130;5.584;2023-05-15T13:32:16;31.08;;;26.45;;
11962;SDS011;62678;52.130;5.584;2023-05-15T13:34:44;36.55;;;26.58;;
11962;SDS011;62678;52.130;5.584;2023-05-15T13:37:11;32.17;;;26.33;;
11962;SDS011;62678;52.130;5.584;2023-05-15T13:39:38;26.35;;;23.35;;
11962;SDS011;62678;52.130;5.584;2023-05-15T13:42:05;27.83;;;22.48;;
11962;SDS011;62678;52.130;5.584;2023-05-15T13:44:31;25.90;;;21.40;;
11962;SDS011;62678;52.130;5.584;2023-05-15T13:46:59;30.13;;;23.88;;
11962;SDS011;62678;52.130;5.584;2023-05-15T13:49:28;27.15;;;23.15;;
11962;SDS011;62678;52.130;5.584;2023-05-15T13:51:57;22.70;;;20.40;;
11962;SDS011;62678;52.130;5.584;2023-05-15T13:54:24;21.83;;;19.15;;
11962;SDS011;62678;52.130;5.584;2023-05-15T13:56:50;18.90;;;16.52;;
11962;SDS011;62678;52.130;5.584;2023-05-15T13:59:17;15.77;;;13.30;;
11962;SDS011;62678;52.130;5.584;2023-05-15T14:01:44;14.30;;;11.95;;
11962;SDS011;62678;52.130;5.584;2023-05-15T14:04:11;11.55;;;10.35;;
11962;SDS011;62678;52.130;5.584;2023-05-15T14:06:38;11.95;;;9.02;;
11962;SDS011;62678;52.130;5.584;2023-05-15T14:09:06;11.43;;;8.82;;
11962;SDS011;62678;52.130;5.584;2023-05-15T14:11:33;10.52;;;9.27;;
11962;SDS011;62678;52.130;5.584;2023-05-15T14:14:00;12.27;;;9.40;;
11962;SDS011;62678;52.130;5.584;2023-05-15T14:16:27;12.38;;;10.23;;
11962;SDS011;62678;52.130;5.584;2023-05-15T14:18:54;16.33;;;10.48;;
11962;SDS011;62678;52.130;5.584;2023-05-15T14:21:22;18.95;;;12.20;;
11962;SDS011;62678;52.130;5.584;2023-05-15T14:23:49;16.13;;;12.15;;
11962;SDS011;62678;52.130;5.584;2023-05-15T14:26:17;15.48;;;11.50;;